Terminal Aerodrome Forecast
Issued by NWS

Home | Current Version | Previous Version | Text Only | Print | Product List | Glossary On
Versions: 1 2 3 4 5 6 7 8 9 10 11 12 13 14 15 16 17 18 19
000
FTUS43 KPAH 141138
TAFOWB
TAF
KOWB 141138Z 1412/1512 00000KT P6SM SKC
     FM141500 12005KT P6SM BKN200
     FM141800 14006KT P6SM BKN060
     FM150100 14004KT P6SM -SN SCT030 OVC045
      TEMPO 1504/1507 5SM -SN BR BKN030
     FM150700 17007KT P6SM BKN070=

USA.gov is the U.S. government's official web portal to all federal, state and local government web resources and services.